Time;durP1;ratioP1;P1;durP2;ratioP2;P2;SDS_P1;SDS_P2;PMS_P1;PMS_P2;Temp;Humidity;BMP_temperature;BMP_pressure;BME280_temperature;BME280_humidity;BME280_pressure;Samples;Min_cycle;Max_cycle;Signal;HPM_P1;HPM_P2
2022/01/07 00:00:34;;;;;;;29.40;12.05;;;;;;;0.63;100.00;101243.03;5057094;28;20187;-80
2022/01/07 00:03:12;;;;;;;32.20;11.52;;;;;;;0.61;100.00;101242.13;5056438;28;20233;-80
2022/01/07 00:05:38;;;;;;;26.02;11.65;;;;;;;0.64;100.00;101236.91;5054461;28;20202;-80
2022/01/07 00:08:04;;;;;;;33.72;13.27;;;;;;;0.59;100.00;101228.97;5055985;28;20163;-79
2022/01/07 00:10:30;;;;;;;29.35;11.63;;;;;;;0.70;100.00;101230.78;5056011;28;20459;-79
2022/01/07 00:12:55;;;;;;;31.65;12.70;;;;;;;0.64;100.00;101220.22;5055927;28;20187;-80
2022/01/07 00:15:21;;;;;;;30.75;13.23;;;;;;;0.66;100.00;101219.34;5039665;28;20550;-80
2022/01/07 00:17:47;;;;;;;23.55;12.73;;;;;;;0.66;100.00;101224.63;5055797;28;20168;-80
2022/01/07 00:20:13;;;;;;;29.73;13.65;;;;;;;0.65;100.00;101209.66;5038243;28;20175;-80
2022/01/07 00:22:41;;;;;;;28.10;13.82;;;;;;;0.61;100.00;101205.22;5055580;28;20277;-80
2022/01/07 00:25:08;;;;;;;30.65;14.35;;;;;;;0.64;100.00;101197.34;5055524;28;20550;-80
2022/01/07 00:27:34;;;;;;;32.35;14.60;;;;;;;0.63;100.00;101195.56;5056233;28;20190;-80
2022/01/07 00:30:00;;;;;;;30.98;15.20;;;;;;;0.59;100.00;101191.16;5056535;28;20175;-80
2022/01/07 00:32:25;;;;;;;34.83;16.75;;;;;;;0.59;100.00;101189.41;5055586;28;21081;-80
2022/01/07 00:34:51;;;;;;;34.20;14.50;;;;;;;0.56;100.00;101189.38;5058188;28;20183;-80
2022/01/07 00:37:17;;;;;;;33.17;15.57;;;;;;;0.59;100.00;101188.50;5056164;28;20187;-79
2022/01/07 00:39:42;;;;;;;30.15;15.43;;;;;;;0.64;100.00;101188.56;5057520;28;20171;-80
2022/01/07 00:42:08;;;;;;;25.25;15.90;;;;;;;0.62;100.00;101180.63;5038713;28;20249;-80
2022/01/07 00:44:34;;;;;;;28.60;15.43;;;;;;;0.56;100.00;101164.75;5057112;28;20810;-80
2022/01/07 00:46:59;;;;;;;31.63;16.67;;;;;;;0.61;100.00;101161.31;5038458;28;20190;-80
2022/01/07 00:49:25;;;;;;;34.60;16.75;;;;;;;0.63;100.00;101170.97;5035620;28;20179;-80
2022/01/07 00:51:51;;;;;;;30.00;16.50;;;;;;;0.58;100.00;101163.91;5033898;28;20208;-81
2022/01/07 00:54:17;;;;;;;26.50;16.00;;;;;;;0.57;100.00;101153.38;5034232;28;20211;-81
2022/01/07 00:56:42;;;;;;;36.25;17.25;;;;;;;0.59;100.00;101146.31;5032370;28;20267;-80
2022/01/07 00:59:08;;;;;;;38.85;17.35;;;;;;;0.62;100.00;101146.38;5030984;28;20176;-79
2022/01/07 01:01:34;;;;;;;30.70;17.38;;;;;;;0.68;100.00;101142.88;5032159;28;20206;-77
2022/01/07 01:03:59;;;;;;;32.05;18.05;;;;;;;0.65;100.00;101132.31;5030855;28;20199;-77
2022/01/07 01:06:24;;;;;;;31.65;18.35;;;;;;;0.66;100.00;101121.78;5030566;28;20175;-77
2022/01/07 01:08:50;;;;;;;35.50;19.13;;;;;;;0.70;100.00;101107.75;5029828;28;20204;-79
2022/01/07 01:11:15;;;;;;;35.38;18.40;;;;;;;0.69;100.00;101110.38;5030977;28;20608;-77
2022/01/07 01:13:41;;;;;;;38.17;18.88;;;;;;;0.65;100.00;101109.47;5031368;28;20175;-78
2022/01/07 01:16:06;;;;;;;29.58;17.77;;;;;;;0.66;100.00;101103.31;5012631;28;20566;-78
2022/01/07 01:18:32;;;;;;;37.58;19.55;;;;;;;0.67;100.00;101110.34;5031108;28;20211;-78
2022/01/07 01:20:58;;;;;;;33.38;17.52;;;;;;;0.61;100.00;101097.13;5031269;28;20167;-78
2022/01/07 01:23:24;;;;;;;37.45;19.95;;;;;;;0.61;100.00;101097.13;5031010;28;20202;-78
2022/01/07 01:25:49;;;;;;;36.78;20.40;;;;;;;0.67;100.00;101088.38;5029588;28;20176;-78
2022/01/07 01:28:15;;;;;;;34.80;20.58;;;;;;;0.63;100.00;101094.50;5031453;28;20206;-80
2022/01/07 01:30:40;;;;;;;37.17;19.00;;;;;;;0.63;100.00;101091.88;5031291;28;20334;-79
2022/01/07 01:33:06;;;;;;;36.42;19.95;;;;;;;0.64;100.00;101091.88;5031126;28;20188;-80
2022/01/07 01:35:31;;;;;;;39.28;21.20;;;;;;;0.64;100.00;101083.97;5029874;28;20201;-78
2022/01/07 01:37:56;;;;;;;39.33;19.77;;;;;;;0.63;100.00;101087.47;5031790;28;20230;-78
2022/01/07 01:40:23;;;;;;;40.45;20.15;;;;;;;0.63;100.00;101092.75;5036640;28;20180;-79
2022/01/07 01:42:52;;;;;;;37.45;20.67;;;;;;;0.63;100.00;101084.84;5019407;28;20279;-79
2022/01/07 01:45:19;;;;;;;35.25;20.20;;;;;;;0.65;100.00;101080.47;5040747;28;20194;-79
2022/01/07 01:47:44;;;;;;;40.67;21.90;;;;;;;0.61;100.00;101070.75;5057140;28;20714;-79
2022/01/07 01:50:10;;;;;;;42.83;21.10;;;;;;;0.65;100.00;101067.28;5058337;28;20199;-79
2022/01/07 01:52:36;;;;;;;43.03;21.33;;;;;;;0.69;100.00;101071.69;5053976;28;20211;-79
2022/01/07 01:55:03;;;;;;;34.80;20.77;;;;;;;0.66;100.00;101061.16;5050468;28;20170;-79
2022/01/07 01:57:28;;;;;;;39.00;20.92;;;;;;;0.66;100.00;101060.28;5051469;28;20171;-79
2022/01/07 01:59:54;;;;;;;35.85;21.38;;;;;;;0.70;100.00;101062.94;5049990;28;20171;-79
2022/01/07 02:02:19;;;;;;;41.92;21.25;;;;;;;0.70;100.00;101059.38;5050084;28;20250;-78
2022/01/07 02:04:45;;;;;;;41.65;21.17;;;;;;;0.70;100.00;101060.28;5051215;28;20171;-78
2022/01/07 02:07:12;;;;;;;42.80;22.92;;;;;;;0.67;100.00;101054.97;5032783;28;20175;-78
2022/01/07 02:09:38;;;;;;;40.95;22.75;;;;;;;0.71;100.00;101051.50;5051330;28;20555;-78
2022/01/07 02:12:08;;;;;;;44.97;22.95;;;;;;;0.74;100.00;101040.06;5050228;28;20199;-79
2022/01/07 02:14:35;;;;;;;46.80;22.98;;;;;;;0.70;100.00;101046.19;5026536;28;20660;-79
2022/01/07 02:17:08;;;;;;;42.83;24.05;;;;;;;0.70;100.00;101043.56;5049138;28;20671;-79
2022/01/07 02:19:35;;;;;;;44.90;22.85;;;;;;;0.73;100.00;101027.78;5028652;28;20236;-79
2022/01/07 02:22:01;;;;;;;49.60;24.40;;;;;;;0.73;100.00;101028.66;5031703;28;20582;-79
2022/01/07 02:24:26;;;;;;;39.08;22.77;;;;;;;0.75;100.00;101037.44;5031380;28;20247;-79
2022/01/07 02:26:52;;;;;;;37.80;23.73;;;;;;;0.74;100.00;101030.41;5048533;28;20175;-80
2022/01/07 02:29:18;;;;;;;43.10;23.48;;;;;;;0.80;100.00;101022.53;5049709;28;20653;-80
2022/01/07 02:31:43;;;;;;;38.65;23.45;;;;;;;0.74;100.00;101029.53;5048394;28;20298;-79
2022/01/07 02:34:08;;;;;;;42.45;24.00;;;;;;;0.72;100.00;101018.09;5032048;28;20637;-80
2022/01/07 02:36:34;;;;;;;40.58;23.92;;;;;;;0.75;100.00;101019.00;5048613;28;20210;-79
2022/01/07 02:38:59;;;;;;;43.63;24.50;;;;;;;0.71;100.00;101003.16;5049575;28;20168;-79
2022/01/07 02:41:26;;;;;;;46.90;23.20;;;;;;;0.75;100.00;101012.84;5049496;28;20215;-79
2022/01/07 02:43:52;;;;;;;45.20;23.65;;;;;;;0.72;100.00;101015.44;5048416;28;20664;-80
2022/01/07 02:46:17;;;;;;;41.08;22.83;;;;;;;0.72;100.00;101005.81;5045149;28;20265;-79
2022/01/07 02:48:43;;;;;;;40.88;22.92;;;;;;;0.82;100.00;100991.75;5028438;28;20665;-80
2022/01/07 02:51:08;;;;;;;43.40;23.55;;;;;;;0.78;100.00;100997.91;5028844;28;20192;-80
2022/01/07 02:53:34;;;;;;;48.03;23.88;;;;;;;0.75;100.00;100995.25;5028783;28;20267;-79
2022/01/07 02:55:59;;;;;;;39.00;23.33;;;;;;;0.73;100.00;100982.94;5029344;28;20176;-80
2022/01/07 02:58:25;;;;;;;41.85;23.10;;;;;;;0.76;100.00;100978.53;5030248;28;20211;-79
2022/01/07 03:00:50;;;;;;;40.53;23.42;;;;;;;0.76;100.00;100975.91;5029918;28;20161;-79
2022/01/07 03:03:16;;;;;;;42.22;22.08;;;;;;;0.72;100.00;100978.53;5030201;28;20204;-80
2022/01/07 03:05:42;;;;;;;38.97;23.17;;;;;;;0.76;100.00;100973.28;5032599;28;20175;-80
2022/01/07 03:08:09;;;;;;;38.13;22.88;;;;;;;0.72;100.00;100971.53;5032145;28;20194;-79
2022/01/07 03:10:34;;;;;;;34.72;21.42;;;;;;;0.73;100.00;100960.09;5049401;28;20278;-78
2022/01/07 03:13:02;;;;;;;41.85;22.75;;;;;;;0.77;100.00;100964.50;5034334;28;20192;-78
2022/01/07 03:15:28;;;;;;;41.10;22.85;;;;;;;0.74;100.00;100967.09;5033909;28;20211;-78
2022/01/07 03:17:53;;;;;;;42.72;23.02;;;;;;;0.77;100.00;100966.25;5033997;28;20528;-79
2022/01/07 03:20:20;;;;;;;42.00;22.55;;;;;;;0.76;100.00;100967.13;5035563;28;20172;-79
2022/01/07 03:22:46;;;;;;;45.13;23.02;;;;;;;0.75;100.00;100963.63;5034144;28;20192;-79
2022/01/07 03:25:12;;;;;;;38.63;21.48;;;;;;;0.76;100.00;100957.44;5033592;28;20176;-79
2022/01/07 03:27:38;;;;;;;41.58;23.30;;;;;;;0.76;100.00;100951.31;5033687;28;20229;-79
2022/01/07 03:30:06;;;;;;;44.42;23.70;;;;;;;0.77;100.00;100953.94;5033064;28;20172;-80
2022/01/07 03:32:32;;;;;;;40.08;22.23;;;;;;;0.79;100.00;100946.94;5034673;28;20208;-79
2022/01/07 03:34:57;;;;;;;37.33;23.48;;;;;;;0.76;100.00;100951.31;5033307;28;20225;-79
2022/01/07 03:37:23;;;;;;;40.25;22.65;;;;;;;0.75;100.00;100946.91;5033057;28;20171;-79
2022/01/07 03:39:48;;;;;;;38.85;21.70;;;;;;;0.74;100.00;100940.75;5033113;28;20167;-80
2022/01/07 03:42:14;;;;;;;37.28;21.95;;;;;;;0.74;100.00;100940.75;5034465;28;20221;-79
2022/01/07 03:44:40;;;;;;;40.08;23.00;;;;;;;0.73;100.00;100925.81;5032755;28;20172;-79
2022/01/07 03:47:05;;;;;;;37.22;21.83;;;;;;;0.77;100.00;100930.22;5032221;28;20172;-79
2022/01/07 03:49:30;;;;;;;44.20;22.83;;;;;;;0.77;100.00;100937.25;5015505;28;20188;-79
2022/01/07 03:51:56;;;;;;;43.83;22.63;;;;;;;0.74;100.00;100921.41;5033770;28;20203;-79
2022/01/07 03:54:21;;;;;;;36.13;23.42;;;;;;;0.77;100.00;100926.72;5034360;28;20215;-79
2022/01/07 03:56:47;;;;;;;36.00;21.00;;;;;;;0.71;100.00;100910.84;5034748;28;20180;-79
2022/01/07 03:59:12;;;;;;;40.42;21.80;;;;;;;0.71;100.00;100914.38;5035422;28;20176;-79
2022/01/07 04:01:38;;;;;;;38.65;22.45;;;;;;;0.67;100.00;100914.34;5033549;28;20188;-79
2022/01/07 04:04:03;;;;;;;41.25;22.33;;;;;;;0.61;100.00;100908.19;5035083;28;20200;-79
2022/01/07 04:06:29;;;;;;;36.53;21.27;;;;;;;0.73;100.00;100909.13;5034689;28;20222;-80
2022/01/07 04:08:55;;;;;;;42.10;23.25;;;;;;;0.70;100.00;100914.34;5035422;28;20237;-79
2022/01/07 04:11:20;;;;;;;39.55;22.50;;;;;;;0.59;100.00;100914.31;5052734;28;20220;-79
2022/01/07 04:13:46;;;;;;;37.28;21.48;;;;;;;0.59;100.00;100901.13;5034305;28;20195;-79
2022/01/07 04:16:12;;;;;;;37.80;22.10;;;;;;;0.55;100.00;100920.47;5051398;28;20219;-79
2022/01/07 04:18:37;;;;;;;42.10;22.00;;;;;;;0.56;100.00;100906.41;5055077;28;20195;-79
2022/01/07 04:21:04;;;;;;;43.75;21.90;;;;;;;0.57;100.00;100908.19;5036312;28;20622;-80
2022/01/07 04:23:29;;;;;;;43.58;23.50;;;;;;;0.56;100.00;100906.41;5054875;28;20587;-80
2022/01/07 04:25:55;;;;;;;42.22;21.75;;;;;;;0.55;100.00;100896.75;5051898;28;20163;-79
2022/01/07 04:28:20;;;;;;;38.13;20.70;;;;;;;0.58;100.00;100896.75;5046297;28;20855;-79
2022/01/07 04:30:46;;;;;;;39.53;21.50;;;;;;;0.53;100.00;100888.81;5051232;28;20759;-80
2022/01/07 04:33:14;;;;;;;41.13;20.77;;;;;;;0.58;100.00;100894.97;5051514;28;20215;-79
2022/01/07 04:35:41;;;;;;;38.47;20.88;;;;;;;0.53;100.00;100898.50;5051996;28;20245;-79
2022/01/07 04:38:07;;;;;;;39.10;21.67;;;;;;;0.45;100.00;100887.91;5050684;28;20643;-79
2022/01/07 04:40:33;;;;;;;39.95;22.13;;;;;;;0.39;100.00;100887.88;5051694;28;20175;-79
2022/01/07 04:43:01;;;;;;;42.47;21.52;;;;;;;0.40;100.00;100881.75;5050506;28;20199;-79
2022/01/07 04:45:27;;;;;;;37.97;21.33;;;;;;;0.41;100.00;100871.19;5051573;28;20621;-79
2022/01/07 04:47:53;;;;;;;44.92;21.88;;;;;;;0.36;100.00;100861.53;5049809;28;20179;-79
2022/01/07 04:50:20;;;;;;;38.55;21.83;;;;;;;0.36;100.00;100851.84;5050651;28;20237;-79
2022/01/07 04:52:46;;;;;;;43.80;21.55;;;;;;;0.32;100.00;100847.44;5034105;28;20235;-79
2022/01/07 04:55:15;;;;;;;38.80;22.73;;;;;;;0.35;100.00;100839.56;5051872;28;20211;-78
2022/01/07 04:57:43;;;;;;;42.15;20.95;;;;;;;0.40;100.00;100842.22;5051104;28;20176;-78
2022/01/07 05:00:09;;;;;;;38.17;21.20;;;;;;;0.37;100.00;100839.53;5051320;28;20159;-79
2022/01/07 05:02:35;;;;;;;48.55;22.38;;;;;;;0.34;100.00;100844.81;5050122;28;20219;-77
2022/01/07 05:05:00;;;;;;;44.47;22.20;;;;;;;0.34;100.00;100827.25;5051286;28;20279;-79
2022/01/07 05:07:26;;;;;;;39.70;21.42;;;;;;;0.33;100.00;100824.63;5050038;28;20175;-78
2022/01/07 05:09:52;;;;;;;40.63;21.02;;;;;;;0.34;100.00;100819.34;5049890;28;20264;-79
2022/01/07 05:12:17;;;;;;;33.28;20.25;;;;;;;0.29;100.00;100813.19;5033100;28;20215;-78
2022/01/07 05:14:42;;;;;;;37.47;20.63;;;;;;;0.29;100.00;100804.41;5054167;28;20163;-77
2022/01/07 05:17:08;;;;;;;37.28;21.50;;;;;;;0.35;100.00;100807.94;5051150;28;20577;-78
2022/01/07 05:19:33;;;;;;;34.65;20.30;;;;;;;0.27;100.00;100807.03;5053486;28;20171;-77
2022/01/07 05:21:59;;;;;;;41.35;21.13;;;;;;;0.27;100.00;100808.78;5051373;28;20226;-77
2022/01/07 05:24:24;;;;;;;36.00;20.80;;;;;;;0.31;100.00;100800.91;5049988;28;20186;-78
2022/01/07 05:26:50;;;;;;;39.53;20.23;;;;;;;0.28;100.00;100800.88;5050421;28;20180;-78
2022/01/07 05:29:15;;;;;;;37.63;20.17;;;;;;;0.22;100.00;100790.34;5049733;28;20221;-78
2022/01/07 05:31:41;;;;;;;34.63;20.42;;;;;;;0.24;100.00;100777.16;5050685;28;20336;-78
2022/01/07 05:34:06;;;;;;;35.65;19.83;;;;;;;0.24;100.00;100780.69;5050763;28;20732;-78
2022/01/07 05:36:31;;;;;;;38.40;21.05;;;;;;;0.22;100.00;100771.00;5048542;28;20585;-78
2022/01/07 05:38:57;;;;;;;35.88;20.13;;;;;;;0.29;100.00;100776.28;5049460;28;20187;-77
2022/01/07 05:41:22;;;;;;;37.05;20.45;;;;;;;0.23;100.00;100776.28;5049040;28;20728;-77
2022/01/07 05:43:49;;;;;;;37.65;19.42;;;;;;;0.24;100.00;100761.34;5048971;28;20180;-76
2022/01/07 05:46:16;;;;;;;32.67;19.58;;;;;;;0.26;100.00;100764.84;5038635;28;20176;-77
2022/01/07 05:48:46;;;;;;;33.88;20.88;;;;;;;0.31;100.00;100774.53;5028869;28;20309;-77
2022/01/07 05:51:12;;;;;;;37.78;19.83;;;;;;;0.29;100.00;100763.13;5030507;28;20794;-77
2022/01/07 05:53:37;;;;;;;36.30;21.13;;;;;;;0.27;100.00;100748.19;5030522;28;20192;-76
2022/01/07 05:56:04;;;;;;;32.47;20.30;;;;;;;0.30;100.00;100756.09;5028459;28;20283;-77
2022/01/07 05:58:30;;;;;;;37.28;20.23;;;;;;;0.36;100.00;100762.25;5030633;28;20183;-77
2022/01/07 06:00:55;;;;;;;34.88;19.25;;;;;;;0.37;100.00;100750.84;5012981;28;20180;-79
2022/01/07 06:03:21;;;;;;;31.95;20.30;;;;;;;0.36;100.00;100743.81;5030361;28;20231;-78
2022/01/07 06:05:46;;;;;;;31.50;19.17;;;;;;;0.35;100.00;100742.06;5028460;28;20199;-78
2022/01/07 06:08:12;;;;;;;30.33;18.95;;;;;;;0.33;100.00;100746.44;5029577;28;20175;-77
2022/01/07 06:10:37;;;;;;;31.98;20.42;;;;;;;0.32;100.00;100747.31;5029606;28;20275;-77
2022/01/07 06:13:03;;;;;;;28.05;18.75;;;;;;;0.34;100.00;100747.31;5030597;28;20607;-78
2022/01/07 06:15:28;;;;;;;32.33;18.95;;;;;;;0.32;100.00;100744.66;5030750;28;20585;-77
2022/01/07 06:17:53;;;;;;;27.33;18.67;;;;;;;0.34;100.00;100729.75;5031054;28;20186;-77
2022/01/07 06:20:21;;;;;;;29.40;18.65;;;;;;;0.32;100.00;100735.91;5029091;28;20598;-77
2022/01/07 06:22:46;;;;;;;26.48;18.55;;;;;;;0.34;100.00;100716.56;5030655;28;20234;-78
2022/01/07 06:25:12;;;;;;;32.55;19.88;;;;;;;0.35;100.00;100731.53;5030346;28;20633;-77
2022/01/07 06:27:38;;;;;;;27.48;18.67;;;;;;;0.37;100.00;100724.50;5029804;28;20164;-77
2022/01/07 06:30:05;;;;;;;30.65;18.80;;;;;;;0.34;100.00;100726.25;5013083;28;20186;-77
2022/01/07 06:32:31;;;;;;;30.20;18.63;;;;;;;0.37;100.00;100715.69;5030528;28;20246;-77
2022/01/07 06:34:56;;;;;;;27.88;19.15;;;;;;;0.34;100.00;100716.56;5029346;28;20574;-77
2022/01/07 06:37:22;;;;;;;25.23;17.80;;;;;;;0.33;100.00;100712.19;5029983;28;20656;-78
2022/01/07 06:39:47;;;;;;;29.65;17.58;;;;;;;0.32;100.00;100710.41;5031411;28;20167;-77
2022/01/07 06:42:13;;;;;;;26.85;19.33;;;;;;;0.32;100.00;100728.00;5033221;28;20239;-77
2022/01/07 06:44:39;;;;;;;26.58;18.17;;;;;;;0.36;100.00;100704.28;5034193;28;20759;-77
2022/01/07 06:47:04;;;;;;;28.92;18.80;;;;;;;0.34;100.00;100715.69;5052469;28;20175;-78
2022/01/07 06:49:30;;;;;;;28.90;18.08;;;;;;;0.35;100.00;100699.91;5054955;28;20575;-78
2022/01/07 06:51:57;;;;;;;23.15;18.10;;;;;;;0.39;100.00;100708.66;5054468;28;20332;-78
2022/01/07 06:54:23;;;;;;;27.75;18.85;;;;;;;0.44;100.00;100701.66;5037448;28;20715;-78
2022/01/07 06:56:49;;;;;;;26.85;19.08;;;;;;;0.43;100.00;100696.38;5052624;28;20281;-78
2022/01/07 06:59:14;;;;;;;22.75;17.42;;;;;;;0.48;100.00;100699.88;5053798;28;20195;-78
2022/01/07 07:01:41;;;;;;;23.73;18.00;;;;;;;0.40;100.00;100706.03;5054632;28;20187;-79
2022/01/07 07:04:07;;;;;;;25.13;17.52;;;;;;;0.40;100.00;100702.53;5037315;28;20187;-77
2022/01/07 07:06:34;;;;;;;23.95;18.25;;;;;;;0.43;100.00;100701.66;5052009;28;20187;-77
2022/01/07 07:09:00;;;;;;;22.10;17.77;;;;;;;0.43;100.00;100701.66;5053453;28;20164;-79
2022/01/07 07:11:25;;;;;;;24.80;18.50;;;;;;;0.40;100.00;100703.41;5052136;28;20202;-79
2022/01/07 07:13:51;;;;;;;24.75;19.10;;;;;;;0.46;100.00;100699.00;5035639;28;20176;-79
2022/01/07 07:16:16;;;;;;;22.75;18.80;;;;;;;0.44;100.00;100695.50;5053497;28;20171;-78
2022/01/07 07:18:42;;;;;;;20.30;17.77;;;;;;;0.45;100.00;100692.00;5053539;28;20175;-79
2022/01/07 07:21:07;;;;;;;22.08;17.73;;;;;;;0.52;100.00;100691.97;5055838;28;20707;-79
2022/01/07 07:23:32;;;;;;;23.45;18.33;;;;;;;0.49;100.00;100688.47;5049024;28;20187;-78
2022/01/07 07:25:58;;;;;;;21.63;17.88;;;;;;;0.57;100.00;100679.72;5034610;28;20625;-78
2022/01/07 07:28:23;;;;;;;23.65;18.13;;;;;;;0.58;100.00;100689.34;5053169;28;20274;-78
2022/01/07 07:30:50;;;;;;;23.30;18.15;;;;;;;0.54;100.00;100700.78;5052999;28;20191;-77
2022/01/07 07:38:32;;;;;;;22.20;16.70;;;;;;;0.58;100.00;100689.34;5052328;28;20614;-77
2022/01/07 07:40:58;;;;;;;23.08;18.25;;;;;;;0.50;100.00;100691.09;5054522;28;20163;-77
2022/01/07 07:43:23;;;;;;;21.98;17.90;;;;;;;0.54;100.00;100705.16;5054125;28;20194;-78
2022/01/07 07:45:48;;;;;;;23.60;17.33;;;;;;;0.55;100.00;100696.41;5051673;28;20628;-79
2022/01/07 07:48:14;;;;;;;23.17;17.65;;;;;;;0.52;100.00;100699.03;5051401;28;20270;-77
2022/01/07 07:50:39;;;;;;;22.25;17.70;;;;;;;0.55;100.00;100696.41;5049810;28;20195;-77
2022/01/07 07:53:05;;;;;;;25.70;16.98;;;;;;;0.52;100.00;100701.66;5051854;28;20191;-77
2022/01/07 07:55:30;;;;;;;26.67;19.88;;;;;;;0.51;100.00;100689.38;5051060;28;20202;-78
2022/01/07 07:57:56;;;;;;;23.92;18.23;;;;;;;0.52;100.00;100693.75;5052949;28;20845;-78
2022/01/07 08:00:21;;;;;;;25.20;19.20;;;;;;;0.50;100.00;100685.81;5050947;28;20217;-77
2022/01/07 08:02:47;;;;;;;25.48;18.13;;;;;;;0.56;100.00;100695.50;5034480;28;20192;-78
2022/01/07 08:05:12;;;;;;;23.02;18.75;;;;;;;0.57;100.00;100681.47;5052692;28;20233;-77
2022/01/07 08:07:38;;;;;;;21.13;18.30;;;;;;;0.53;100.00;100684.97;5050676;28;20175;-77
2022/01/07 08:10:04;;;;;;;21.20;18.08;;;;;;;0.58;100.00;100689.34;5051855;28;20214;-78
2022/01/07 08:12:51;;;;;;;24.33;18.63;;;;;;;0.59;100.00;100684.94;5050876;28;20205;-77
2022/01/07 08:17:59;;;;;;;19.90;17.67;;;;;;;0.58;100.00;100688.47;5053624;28;20254;-77
2022/01/07 08:20:24;;;;;;;25.27;18.42;;;;;;;0.61;100.00;100688.47;5049577;28;20185;-78
2022/01/07 08:22:50;;;;;;;23.42;19.33;;;;;;;0.57;100.00;100684.09;5050355;28;20302;-78
2022/01/07 08:25:15;;;;;;;24.70;18.65;;;;;;;0.56;100.00;100683.19;5050115;28;20175;-78
2022/01/07 08:27:40;;;;;;;24.90;18.88;;;;;;;0.61;100.00;100683.19;5049835;28;20187;-78
2022/01/07 08:30:14;;;;;;;25.38;20.40;;;;;;;0.58;100.00;100683.22;5050011;28;20164;-78
2022/01/07 08:35:24;;;;;;;24.42;19.33;;;;;;;0.60;100.00;100686.72;5050444;28;20206;-78
2022/01/07 08:37:49;;;;;;;23.27;19.88;;;;;;;0.59;100.00;100677.03;5048278;28;20313;-77
2022/01/07 08:40:15;;;;;;;26.98;20.38;;;;;;;0.60;100.00;100678.81;5049359;28;20675;-77
2022/01/07 08:42:40;;;;;;;27.17;21.58;;;;;;;0.60;100.00;100687.59;5049904;28;20674;-77
2022/01/07 08:45:06;;;;;;;28.42;21.27;;;;;;;0.58;100.00;100676.16;5039637;28;20191;-77
2022/01/07 08:47:32;;;;;;;28.63;21.20;;;;;;;0.60;100.00;100674.41;5013155;28;20164;-77
2022/01/07 08:49:57;;;;;;;24.83;21.23;;;;;;;0.61;100.00;100675.28;5031978;28;20562;-77
2022/01/07 08:52:22;;;;;;;23.45;20.88;;;;;;;0.66;100.00;100670.91;5030753;28;20196;-77
2022/01/07 08:54:50;;;;;;;23.65;20.23;;;;;;;0.68;100.00;100676.16;5031290;28;20168;-77
2022/01/07 08:57:18;;;;;;;26.63;21.58;;;;;;;0.66;100.00;100670.91;5030137;28;20180;-77
2022/01/07 08:59:43;;;;;;;25.35;21.38;;;;;;;0.61;100.00;100670.91;5013568;28;20168;-76
2022/01/07 09:02:08;;;;;;;27.33;20.08;;;;;;;0.67;100.00;100679.69;5029927;28;20619;-78
2022/01/07 09:04:34;;;;;;;25.20;20.50;;;;;;;0.66;100.00;100672.69;5030385;28;20247;-77
2022/01/07 09:06:59;;;;;;;22.48;19.83;;;;;;;0.63;100.00;100664.75;5029734;28;20264;-77
2022/01/07 09:09:25;;;;;;;21.63;19.20;;;;;;;0.71;100.00;100684.09;5014183;28;20633;-77
2022/01/07 09:11:50;;;;;;;22.45;20.08;;;;;;;0.59;100.00;100677.03;5031665;28;20222;-77
2022/01/07 09:14:16;;;;;;;22.23;19.25;;;;;;;0.58;100.00;100663.00;5017522;28;20171;-77
2022/01/07 09:16:41;;;;;;;23.13;19.45;;;;;;;0.62;100.00;100663.88;5030836;28;20172;-77
2022/01/07 09:19:07;;;;;;;22.27;19.30;;;;;;;0.56;100.00;100670.03;5031131;28;20226;-77
2022/01/07 09:21:32;;;;;;;23.15;19.48;;;;;;;0.58;100.00;100652.44;5031294;28;20688;-77
2022/01/07 09:23:57;;;;;;;23.80;18.63;;;;;;;0.62;100.00;100658.59;5031315;28;20164;-77
2022/01/07 09:26:23;;;;;;;21.60;18.80;;;;;;;0.58;100.00;100663.00;5030533;28;20180;-77
2022/01/07 09:28:48;;;;;;;23.27;19.75;;;;;;;0.60;100.00;100665.63;5029987;28;20226;-77
2022/01/07 09:31:14;;;;;;;21.77;19.48;;;;;;;0.58;100.00;100652.44;5029601;28;20208;-77
2022/01/07 09:33:40;;;;;;;21.92;19.45;;;;;;;0.60;100.00;100661.25;5031853;28;20180;-78
2022/01/07 09:36:05;;;;;;;24.10;19.98;;;;;;;0.64;100.00;100653.34;5012747;28;20171;-77
2022/01/07 09:38:31;;;;;;;20.42;18.35;;;;;;;0.68;100.00;100662.97;5029335;28;20241;-78
2022/01/07 09:40:56;;;;;;;21.67;19.25;;;;;;;0.65;100.00;100657.72;5030773;28;20187;-78
2022/01/07 09:43:22;;;;;;;22.90;19.17;;;;;;;0.69;100.00;100665.63;5012865;28;20192;-78
2022/01/07 09:45:48;;;;;;;21.10;18.90;;;;;;;0.70;100.00;100662.13;5012447;28;20295;-77
2022/01/07 09:48:14;;;;;;;20.10;17.77;;;;;;;0.85;100.00;100661.22;5030502;28;20267;-77
2022/01/07 09:50:39;;;;;;;20.23;18.13;;;;;;;0.73;100.00;100662.13;5029208;28;20728;-77
2022/01/07 09:53:08;;;;;;;19.75;17.25;;;;;;;0.79;100.00;100662.13;5029187;28;20192;-77
2022/01/07 09:55:33;;;;;;;18.92;16.80;;;;;;;0.73;100.00;100656.84;5030178;28;20651;-77
2022/01/07 09:58:00;;;;;;;19.48;17.48;;;;;;;0.73;100.00;100650.69;5029953;28;20271;-77
2022/01/07 10:00:33;;;;;;;21.90;18.20;;;;;;;0.73;100.00;100651.56;5029673;28;20172;-76
2022/01/07 10:03:05;;;;;;;19.70;17.42;;;;;;;0.70;100.00;100651.59;5029174;28;20196;-76
2022/01/07 10:05:30;;;;;;;18.27;16.38;;;;;;;0.71;100.00;100645.41;5028802;28;20744;-76
2022/01/07 10:08:14;;;;;;;19.00;16.90;;;;;;;0.67;100.00;100648.94;5030123;28;20247;-76
2022/01/07 10:10:40;;;;;;;18.20;16.27;;;;;;;0.69;100.00;100644.53;5030194;28;20243;-76
2022/01/07 10:13:06;;;;;;;18.77;15.70;;;;;;;0.68;100.00;100642.78;5028690;28;20329;-76
2022/01/07 10:15:39;;;;;;;18.45;16.48;;;;;;;0.72;100.00;100635.75;5028174;28;20179;-77
2022/01/07 10:18:11;;;;;;;18.27;16.38;;;;;;;0.90;100.00;100645.41;5030112;28;20267;-78
2022/01/07 10:20:42;;;;;;;18.55;15.70;;;;;;;0.81;100.00;100638.38;5030413;28;20164;-79
2022/01/07 10:23:23;;;;;;;17.95;16.02;;;;;;;0.79;100.00;100633.09;5029950;28;20326;-78
2022/01/07 10:25:53;;;;;;;16.75;14.85;;;;;;;0.82;100.00;100634.84;5029064;28;20168;-78
2022/01/07 10:28:20;;;;;;;16.50;14.90;;;;;;;0.72;100.00;100639.28;5030442;28;20223;-77
2022/01/07 10:30:52;;;;;;;16.65;14.88;;;;;;;0.76;100.00;100637.50;5029024;28;20231;-78
2022/01/07 10:33:26;;;;;;;16.88;14.75;;;;;;;0.79;100.00;100621.69;5030531;28;20196;-78
2022/01/07 10:35:53;;;;;;;16.08;14.48;;;;;;;0.76;100.00;100629.59;5029733;28;20363;-78
2022/01/07 10:38:29;;;;;;;16.35;14.65;;;;;;;0.90;100.00;100632.22;5030426;28;20243;-79
2022/01/07 10:40:59;;;;;;;16.85;15.02;;;;;;;1.00;100.00;100633.94;5030083;28;20168;-77
2022/01/07 10:43:35;;;;;;;17.10;15.45;;;;;;;0.88;100.00;100628.72;5030012;28;20187;-79
2022/01/07 10:46:07;;;;;;;17.63;14.98;;;;;;;1.16;100.00;100630.38;5028337;28;20252;-78
2022/01/07 10:48:35;;;;;;;15.82;14.32;;;;;;;1.01;100.00;100625.16;5011984;28;20184;-77
2022/01/07 10:51:06;;;;;;;17.50;15.70;;;;;;;0.96;100.00;100625.16;5029738;28;20212;-78
2022/01/07 10:53:32;;;;;;;16.25;14.65;;;;;;;1.12;100.00;100622.50;5041720;28;20191;-78
2022/01/07 10:55:58;;;;;;;17.05;14.85;;;;;;;0.85;100.00;100619.00;5031736;28;20190;-77
2022/01/07 10:58:23;;;;;;;17.50;15.80;;;;;;;0.93;100.00;100632.19;5032215;28;20559;-77
2022/01/07 11:00:49;;;;;;;18.92;16.08;;;;;;;0.94;100.00;100633.94;5049964;28;20178;-77
2022/01/07 11:03:14;;;;;;;17.77;15.98;;;;;;;0.94;100.00;100629.56;5048963;28;20194;-77
2022/01/07 11:05:42;;;;;;;17.35;15.55;;;;;;;1.17;100.00;100625.97;5048515;28;20168;-77
2022/01/07 11:08:07;;;;;;;22.45;18.30;;;;;;;0.93;100.00;100630.44;5049954;28;20190;-77
2022/01/07 11:10:34;;;;;;;19.05;16.33;;;;;;;1.06;100.00;100623.38;5050718;28;20282;-77
2022/01/07 11:13:00;;;;;;;18.08;16.27;;;;;;;1.14;100.00;100616.31;5048418;28;20273;-77
2022/01/07 11:15:26;;;;;;;18.48;16.60;;;;;;;0.89;100.00;100612.84;5050320;28;20221;-77